Time;durP1;ratioP1;P1;durP2;ratioP2;P2;SDS_P1;SDS_P2;PMS_P1;PMS_P2;Temp;Humidity;BMP_temperature;BMP_pressure;BME280_temperature;BME280_humidity;BME280_pressure;Samples;Min_cycle;Max_cycle;Signal;HPM_P1;HPM_P2
2022/07/30 00:00:41;;;;;;;1999.90;999.90;;;;;;;21.94;64.17;95434.59;5010790;28;20423;-64
2022/07/30 00:03:06;;;;;;;1999.90;999.90;;;;;;;22.00;64.35;95441.25;5029917;28;20027;-65
2022/07/30 00:05:32;;;;;;;1999.90;999.90;;;;;;;22.10;64.13;95445.22;5029259;28;20038;-65
2022/07/30 00:07:57;;;;;;;1999.90;999.90;;;;;;;22.04;63.69;95439.34;5030197;28;20056;-65
2022/07/30 00:10:23;;;;;;;1999.90;999.90;;;;;;;22.03;63.58;95424.25;5011140;28;20040;-65
2022/07/30 00:12:48;;;;;;;1999.90;999.90;;;;;;;22.14;64.07;95438.72;5011764;28;20017;-65
2022/07/30 00:15:13;;;;;;;1999.90;999.90;;;;;;;22.13;63.83;95429.03;5010559;28;20037;-65
2022/07/30 00:17:39;;;;;;;1999.90;999.90;;;;;;;22.18;63.82;95430.66;5029649;28;20040;-65
2022/07/30 00:20:05;;;;;;;1999.90;999.90;;;;;;;22.12;63.67;95424.78;5028893;28;20026;-65
2022/07/30 00:22:30;;;;;;;1999.90;999.90;;;;;;;22.13;63.48;95429.03;5011417;28;20033;-65
2022/07/30 00:24:56;;;;;;;1999.90;999.90;;;;;;;22.05;63.07;95422.72;5011113;28;20021;-65
2022/07/30 00:27:21;;;;;;;1999.90;999.90;;;;;;;21.99;63.28;95407.19;5029694;28;20059;-65
2022/07/30 00:29:46;;;;;;;1999.90;999.90;;;;;;;22.13;63.05;95439.88;5028212;28;20029;-65
2022/07/30 00:32:12;;;;;;;1999.90;999.90;;;;;;;22.02;62.99;95420.78;5010646;28;20021;-65
2022/07/30 00:34:37;;;;;;;1999.90;999.90;;;;;;;22.02;63.06;95423.50;5011004;28;20511;-65
2022/07/30 00:37:02;;;;;;;1999.90;999.90;;;;;;;22.02;63.12;95422.72;5010102;28;20029;-65
2022/07/30 00:39:29;;;;;;;1999.90;999.90;;;;;;;21.99;63.35;95423.44;5028801;28;20030;-65
2022/07/30 00:42:00;;;;;;;1999.90;999.90;;;;;;;22.00;63.05;95414.16;5028681;28;20026;-65
2022/07/30 00:44:26;;;;;;;1999.90;999.90;;;;;;;22.02;62.94;95412.66;5024776;28;20246;-65
2022/07/30 00:46:51;;;;;;;1999.90;999.90;;;;;;;21.90;63.13;95387.72;5009774;28;20079;-65
2022/07/30 00:49:17;;;;;;;1999.90;999.90;;;;;;;21.96;63.38;95399.81;5028079;28;20433;-65
2022/07/30 00:51:42;;;;;;;1999.90;999.90;;;;;;;22.06;63.21;95408.06;5029139;28;20036;-65
2022/07/30 00:54:08;;;;;;;1999.90;999.90;;;;;;;21.94;63.14;95400.16;5010421;28;20036;-65
2022/07/30 00:56:33;;;;;;;1999.90;999.90;;;;;;;22.05;63.40;95414.59;5028875;28;20055;-65
2022/07/30 00:58:58;;;;;;;1999.90;999.90;;;;;;;22.04;63.07;95414.97;5028795;28;20088;-65
2022/07/30 01:01:24;;;;;;;1999.90;999.90;;;;;;;22.06;63.40;95412.69;5028415;28;20040;-64
2022/07/30 01:03:49;;;;;;;1999.90;999.90;;;;;;;22.08;63.33;95410.38;5011303;28;20041;-64
2022/07/30 01:06:15;;;;;;;1999.90;999.90;;;;;;;22.19;63.23;95421.38;5014874;28;20033;-64
2022/07/30 01:08:42;;;;;;;1999.90;999.90;;;;;;;22.14;62.91;95419.00;5014557;28;20913;-64
2022/07/30 01:11:08;;;;;;;1999.90;999.90;;;;;;;22.05;62.57;95409.19;5015528;28;20604;-65
2022/07/30 01:13:33;;;;;;;1999.90;999.90;;;;;;;22.12;63.10;95416.66;5031134;28;20100;-64
2022/07/30 01:15:59;;;;;;;1999.90;999.90;;;;;;;22.06;63.20;95407.28;5031962;28;20029;-64
2022/07/30 01:19:47;;;;;;;1999.90;999.90;;;;;;;22.05;63.22;95403.00;5032053;28;20040;-65
2022/07/30 01:21:17;;;;;;;1999.90;999.90;;;;;;;22.08;63.24;95407.69;5031989;28;20025;-64
2022/07/30 01:23:45;;;;;;;1999.90;999.90;;;;;;;22.08;62.90;95404.19;5032786;28;20033;-64
2022/07/30 01:26:15;;;;;;;1999.90;999.90;;;;;;;22.08;62.98;95406.91;5032323;28;20057;-64
2022/07/30 01:28:47;;;;;;;1999.90;999.90;;;;;;;21.92;63.10;95382.75;5032029;28;20107;-64
2022/07/30 01:31:14;;;;;;;1999.90;999.90;;;;;;;21.90;63.12;95371.47;5032021;28;20052;-64
2022/07/30 01:33:43;;;;;;;1999.90;999.90;;;;;;;21.87;62.84;95372.25;5032482;28;20029;-65
2022/07/30 01:36:12;;;;;;;1999.90;999.90;;;;;;;21.91;63.17;95378.47;5031951;28;20029;-64
2022/07/30 01:38:40;;;;;;;1999.90;999.90;;;;;;;22.00;62.89;95403.31;5031770;28;20112;-64
2022/07/30 01:41:07;;;;;;;1999.90;999.90;;;;;;;21.98;63.01;95406.41;5030448;28;20068;-65
2022/07/30 01:43:34;;;;;;;1999.90;999.90;;;;;;;21.84;62.83;95389.22;5032222;28;20033;-66
2022/07/30 01:46:01;;;;;;;1999.90;999.90;;;;;;;21.46;62.66;95336.97;5031104;28;20029;-65
2022/07/30 01:48:27;;;;;;;1999.90;999.90;;;;;;;21.83;62.88;95403.91;5030641;28;20048;-65
2022/07/30 01:50:57;;;;;;;1999.90;999.90;;;;;;;21.69;62.79;95364.69;5032397;28;20025;-64
2022/07/30 01:53:30;;;;;;;1999.90;999.90;;;;;;;21.52;62.70;95344.41;5031162;28;20025;-65
2022/07/30 01:55:57;;;;;;;1999.90;999.90;;;;;;;21.74;61.85;95396.84;5032571;28;20025;-65
2022/07/30 01:58:26;;;;;;;1999.90;999.90;;;;;;;21.60;62.58;95398.59;5031385;28;20025;-65
2022/07/30 02:00:54;;;;;;;1999.90;999.90;;;;;;;21.52;62.26;95384.22;5031074;28;20021;-65
2022/07/30 02:03:20;;;;;;;1999.90;999.90;;;;;;;21.23;62.41;95343.22;5031963;28;20044;-64
2022/07/30 02:05:52;;;;;;;1999.90;999.90;;;;;;;21.62;62.58;95390.91;5031490;28;20026;-66
2022/07/30 02:08:26;;;;;;;1999.90;999.90;;;;;;;21.62;62.67;95401.72;5031455;28;20541;-65
2022/07/30 02:11:00;;;;;;;1999.90;999.90;;;;;;;21.41;62.75;95386.78;5032001;28;20057;-65
2022/07/30 02:13:29;;;;;;;1999.90;999.90;;;;;;;21.08;62.76;95335.28;5030815;28;20088;-65
2022/07/30 02:16:10;;;;;;;1999.90;999.90;;;;;;;21.48;62.95;95403.09;5030381;28;20021;-65
2022/07/30 02:18:46;;;;;;;1999.90;999.90;;;;;;;21.28;62.75;95363.78;5031122;28;20080;-65
2022/07/30 02:21:11;;;;;;;1999.90;999.90;;;;;;;21.53;62.59;95404.72;5031677;28;20073;-65
2022/07/30 02:23:43;;;;;;;1999.90;999.90;;;;;;;21.45;62.57;95394.97;5030611;28;20068;-65
2022/07/30 02:26:11;;;;;;;;;;;;;;;20.91;63.63;95399.59;5032538;28;20106;-65
2022/07/30 02:28:38;;;;;;;1999.90;999.90;;;;;;;20.81;63.97;95397.50;5030741;28;19949;-65
2022/07/30 02:31:08;;;;;;;1999.90;999.90;;;;;;;21.00;63.63;95385.81;5029903;28;20037;-65
2022/07/30 02:33:37;;;;;;;1999.90;999.90;;;;;;;21.09;63.64;95399.06;5030772;28;20071;-65
2022/07/30 02:36:04;;;;;;;1999.90;999.90;;;;;;;21.02;63.53;95375.41;5013304;28;20063;-66
2022/07/30 02:38:31;;;;;;;1999.90;999.90;;;;;;;21.16;63.65;95401.88;5012874;28;20116;-64
2022/07/30 02:41:00;;;;;;;1999.90;999.90;;;;;;;21.07;63.61;95385.91;5031387;28;20113;-65
2022/07/30 02:43:26;;;;;;;1999.90;999.90;;;;;;;20.99;63.75;95400.47;5030251;28;20097;-64
2022/07/30 02:45:52;;;;;;;1999.90;999.90;;;;;;;20.70;64.66;95418.97;5030630;28;20056;-64
2022/07/30 02:48:20;;;;;;;1999.90;999.90;;;;;;;20.45;64.72;95401.53;5030794;28;20061;-64
2022/07/30 02:50:52;;;;;;;1999.90;999.90;;;;;;;20.84;64.58;95409.53;5030513;28;20441;-64
2022/07/30 02:53:19;;;;;;;1999.90;999.90;;;;;;;20.88;64.86;95403.03;5013414;28;20025;-63
2022/07/30 02:55:47;;;;;;;1999.90;999.90;;;;;;;20.86;65.05;95394.47;5029708;28;20429;-66
2022/07/30 02:58:18;;;;;;;1999.90;999.90;;;;;;;20.92;65.23;95376.03;5030492;28;20036;-64
2022/07/30 03:00:45;;;;;;;1999.90;999.90;;;;;;;20.88;64.41;95377.88;5029439;28;20021;-64
2022/07/30 03:03:12;;;;;;;1999.90;999.90;;;;;;;21.20;63.67;95395.38;5030841;28;20041;-65
2022/07/30 03:05:38;;;;;;;1999.90;999.90;;;;;;;21.18;64.01;95376.00;5030380;28;20441;-64
2022/07/30 03:08:04;;;;;;;1999.90;999.90;;;;;;;21.28;63.80;95375.38;5029394;28;20032;-64
2022/07/30 03:10:31;;;;;;;1999.90;999.90;;;;;;;21.47;63.55;95398.84;5013304;28;20083;-64
2022/07/30 03:12:58;;;;;;;1999.90;999.90;;;;;;;21.47;62.77;95398.84;5029919;28;20462;-64
2022/07/30 03:15:25;;;;;;;1999.90;999.90;;;;;;;21.49;62.69;95390.34;5029875;28;20464;-64
2022/07/30 03:17:52;;;;;;;1999.90;999.90;;;;;;;21.52;63.01;95381.50;5030020;28;20100;-64
2022/07/30 03:20:22;;;;;;;1999.90;999.90;;;;;;;21.54;63.06;95373.78;5029404;28;20017;-64
2022/07/30 03:22:50;;;;;;;1999.90;999.90;;;;;;;21.72;62.39;95385.63;5012901;28;20025;-64
2022/07/30 03:25:21;;;;;;;1999.90;999.90;;;;;;;21.52;62.25;95357.91;5029944;28;20021;-65
2022/07/30 03:27:47;;;;;;;1999.90;999.90;;;;;;;21.79;61.91;95387.63;5029795;28;20377;-64
2022/07/30 03:30:13;;;;;;;1999.90;999.90;;;;;;;21.72;61.55;95363.97;5011069;28;20025;-64
2022/07/30 03:32:39;;;;;;;1999.90;999.90;;;;;;;21.78;61.28;95364.41;5012410;28;20039;-64
2022/07/30 03:35:07;;;;;;;1999.90;999.90;;;;;;;21.84;61.32;95371.03;5029718;28;20037;-64
2022/07/30 03:37:34;;;;;;;1999.90;999.90;;;;;;;21.91;61.24;95392.03;5029810;28;20397;-65
2022/07/30 03:40:00;;;;;;;1999.90;999.90;;;;;;;21.75;61.32;95368.66;5029711;28;20115;-65
2022/07/30 03:42:27;;;;;;;1999.90;999.90;;;;;;;21.86;61.55;95387.72;5010390;28;20054;-65
2022/07/30 03:44:52;;;;;;;1999.90;999.90;;;;;;;21.53;62.11;95354.06;5010616;28;20018;-65
2022/07/30 03:47:21;;;;;;;1999.90;999.90;;;;;;;21.49;61.28;95417.41;5026906;28;20028;-65
2022/07/30 03:49:46;;;;;;;1999.90;999.90;;;;;;;21.64;61.86;95396.72;5030138;28;20041;-65
2022/07/30 03:52:12;;;;;;;1999.90;999.90;;;;;;;21.12;61.71;95296.31;5027591;28;20029;-65
2022/07/30 03:54:49;;;;;;;1999.90;999.90;;;;;;;21.83;62.13;95410.09;5010238;28;20034;-64
2022/07/30 03:57:15;;;;;;;1999.90;999.90;;;;;;;21.36;62.10;95354.63;5024930;28;20075;-64
2022/07/30 03:59:40;;;;;;;1999.90;999.90;;;;;;;21.65;62.03;95393.66;5030128;28;20068;-65
2022/07/30 04:02:06;;;;;;;1999.90;999.90;;;;;;;21.52;61.91;95379.56;5028811;28;20033;-65
2022/07/30 04:04:31;;;;;;;1999.90;999.90;;;;;;;21.41;61.35;95375.19;5030019;28;20363;-64
2022/07/30 04:06:58;;;;;;;1999.90;999.90;;;;;;;21.59;61.66;95426.81;5028374;28;20022;-65
2022/07/30 04:09:23;;;;;;;1999.90;999.90;;;;;;;21.64;61.71;95426.50;5012225;28;20060;-65
2022/07/30 04:11:49;;;;;;;1999.90;999.90;;;;;;;21.72;61.94;95434.34;5011824;28;20131;-65
2022/07/30 04:14:15;;;;;;;1999.90;999.90;;;;;;;21.62;61.54;95442.34;5029301;28;20064;-65
2022/07/30 04:17:00;;;;;;;1999.90;999.90;;;;;;;21.63;61.68;95444.66;5028710;28;20030;-65
2022/07/30 04:19:33;;;;;;;1999.90;999.90;;;;;;;21.16;62.82;95448.63;5011679;28;20478;-65
2022/07/30 04:22:00;;;;;;;1999.90;999.90;;;;;;;21.35;62.58;95447.00;5022467;28;20390;-65
2022/07/30 04:24:26;;;;;;;1999.90;999.90;;;;;;;;;;5025648;28;20482;-66
2022/07/30 04:26:52;;;;;;;1999.90;999.90;;;;;;;21.45;61.70;95409.28;5012470;28;20029;-65
2022/07/30 04:29:18;;;;;;;1999.90;999.90;;;;;;;21.32;61.94;95451.22;5028050;28;20021;-65
2022/07/30 04:31:44;;;;;;;1999.90;999.90;;;;;;;21.64;61.89;95453.56;5010379;28;20364;-65
2022/07/30 04:34:13;;;;;;;1999.90;999.90;;;;;;;21.38;61.37;95411.09;5029738;28;20029;-65
2022/07/30 04:36:40;;;;;;;1999.90;999.90;;;;;;;21.64;60.71;95451.63;5028275;28;20040;-65
2022/07/30 04:39:05;;;;;;;1999.90;999.90;;;;;;;21.67;60.59;95453.63;5029316;28;20025;-65
2022/07/30 04:41:30;;;;;;;1999.90;999.90;;;;;;;21.77;60.86;95471.16;5028443;28;20592;-65
2022/07/30 04:43:56;;;;;;;1999.90;999.90;;;;;;;21.63;60.46;95419.53;5011566;28;20394;-65
2022/07/30 04:46:21;;;;;;;1999.90;999.90;;;;;;;21.55;60.03;95461.97;5028973;28;20057;-65
2022/07/30 04:48:46;;;;;;;1999.90;999.90;;;;;;;21.69;60.65;95470.28;5029855;28;20017;-65
2022/07/30 04:51:18;;;;;;;1999.90;999.90;;;;;;;21.71;60.03;95450.97;5028073;28;20394;-65
2022/07/30 04:53:45;;;;;;;1999.90;999.90;;;;;;;22.06;59.80;95472.28;5029272;28;20025;-66
2022/07/30 04:56:13;;;;;;;1999.90;999.90;;;;;;;21.74;59.59;95453.69;5028865;28;20026;-65
2022/07/30 04:58:40;;;;;;;1999.90;999.90;;;;;;;22.09;59.37;95441.75;5029716;28;20025;-65
2022/07/30 05:01:07;;;;;;;1999.90;999.90;;;;;;;21.97;59.23;95478.00;5028557;28;20374;-65
2022/07/30 05:03:34;;;;;;;1999.90;999.90;;;;;;;21.78;59.81;95457.25;5029319;28;20587;-65
2022/07/30 05:06:01;;;;;;;1999.90;999.90;;;;;;;21.82;59.63;95461.94;5027961;28;20033;-65
2022/07/30 05:08:27;;;;;;;1999.90;999.90;;;;;;;21.61;58.99;95427.25;5027634;28;20018;-65
2022/07/30 05:10:52;;;;;;;1999.90;999.90;;;;;;;21.66;59.69;95456.72;5028772;28;20494;-65
2022/07/30 05:13:18;;;;;;;1999.90;999.90;;;;;;;21.63;59.64;95433.84;5028062;28;20033;-65
2022/07/30 05:15:44;;;;;;;1999.90;999.90;;;;;;;22.02;58.50;95441.66;5028311;28;20025;-65
2022/07/30 05:18:10;;;;;;;1999.90;999.90;;;;;;;22.08;58.47;95452.94;5029503;28;20489;-65
2022/07/30 05:20:36;;;;;;;1999.90;999.90;;;;;;;21.89;59.08;95480.97;5028476;28;20017;-65
2022/07/30 05:23:02;;;;;;;1999.90;999.90;;;;;;;22.14;58.40;95475.88;5027569;28;20040;-64
2022/07/30 05:25:27;;;;;;;1999.90;999.90;;;;;;;21.40;59.71;95444.75;5028473;28;20037;-64
2022/07/30 05:27:52;;;;;;;1999.90;999.90;;;;;;;22.67;57.62;95483.78;5029278;28;20030;-65
2022/07/30 05:30:18;;;;;;;1999.90;999.90;;;;;;;22.01;56.75;95339.91;5028338;28;20026;-64
2022/07/30 05:32:43;;;;;;;1999.90;999.90;;;;;;;22.17;57.22;95431.81;5028072;28;20029;-64
2022/07/30 05:35:08;;;;;;;1999.90;999.90;;;;;;;22.69;56.26;95493.13;5028569;28;20063;-65
2022/07/30 05:37:34;;;;;;;1999.90;999.90;;;;;;;22.48;57.67;95492.91;5028098;28;20482;-64
2022/07/30 05:39:59;;;;;;;1999.90;999.90;;;;;;;22.07;58.02;95479.25;5027856;28;20026;-64
2022/07/30 05:42:24;;;;;;;1999.90;999.90;;;;;;;21.97;58.09;95458.25;5026396;28;20421;-64
2022/07/30 05:44:50;;;;;;;1999.90;999.90;;;;;;;22.02;58.27;95499.34;5029163;28;20367;-64
2022/07/30 05:47:16;;;;;;;1999.90;999.90;;;;;;;21.35;60.27;95488.38;5028249;28;20054;-64
2022/07/30 05:49:42;;;;;;;1999.90;999.90;;;;;;;20.73;61.86;95485.81;5029153;28;20116;-64
2022/07/30 05:52:07;;;;;;;1999.90;999.90;;;;;;;20.47;62.28;95464.09;5028961;28;20101;-64
2022/07/30 05:54:33;;;;;;;1999.90;999.90;;;;;;;21.03;60.45;95487.84;5015084;28;20037;-64
2022/07/30 05:56:58;;;;;;;1999.90;999.90;;;;;;;21.10;61.38;95498.00;5031988;28;20029;-64
2022/07/30 05:59:23;;;;;;;1999.90;999.90;;;;;;;20.95;60.39;95453.72;5014116;28;20085;-64
2022/07/30 06:01:49;;;;;;;1999.90;999.90;;;;;;;20.85;60.87;95448.94;5031491;28;20096;-65
2022/07/30 06:04:14;;;;;;;1999.90;999.90;;;;;;;20.72;61.15;95486.16;5031946;28;20037;-64
2022/07/30 06:06:39;;;;;;;1999.90;999.90;;;;;;;20.59;62.80;95511.81;5030692;28;20061;-63
2022/07/30 06:09:05;;;;;;;1999.90;999.90;;;;;;;21.18;61.33;95524.78;5032544;28;20163;-64
2022/07/30 06:11:31;;;;;;;1999.90;999.90;;;;;;;21.40;60.03;95517.06;5031978;28;20561;-64
2022/07/30 06:13:56;;;;;;;1999.90;999.90;;;;;;;20.68;62.04;95499.63;5030874;28;20126;-64
2022/07/30 06:16:22;;;;;;;1999.90;999.90;;;;;;;20.83;61.90;95499.88;5029339;28;20043;-64
2022/07/30 06:18:47;;;;;;;1999.90;999.90;;;;;;;21.54;59.90;95501.00;5031985;28;20025;-64
2022/07/30 06:21:13;;;;;;;1999.90;999.90;;;;;;;21.77;59.60;95504.44;5031546;28;20034;-64
2022/07/30 06:23:38;;;;;;;1999.90;999.90;;;;;;;22.18;57.61;95523.53;5030201;28;20029;-64
2022/07/30 06:26:03;;;;;;;1999.90;999.90;;;;;;;21.46;59.84;95515.59;5013372;28;20029;-65
2022/07/30 06:28:29;;;;;;;1999.90;999.90;;;;;;;21.47;58.46;95468.44;5032187;28;20401;-64
2022/07/30 06:30:54;;;;;;;1999.90;999.90;;;;;;;21.61;58.70;95501.13;5031358;28;20469;-64
2022/07/30 06:33:19;;;;;;;1999.90;999.90;;;;;;;20.93;59.93;95461.41;5030622;28;20045;-64
2022/07/30 06:35:45;;;;;;;1999.90;999.90;;;;;;;20.88;60.57;95484.16;5030777;28;20026;-65
2022/07/30 06:38:10;;;;;;;1999.90;999.90;;;;;;;20.84;61.60;95548.19;5030561;28;20048;-65
2022/07/30 06:40:35;;;;;;;1999.90;999.90;;;;;;;20.73;61.59;95498.56;5013531;28;20033;-65
2022/07/30 06:43:02;;;;;;;1999.90;999.90;;;;;;;20.79;62.08;95553.88;5030702;28;20116;-65
2022/07/30 06:45:28;;;;;;;1999.90;999.90;;;;;;;20.70;61.83;95518.97;5031070;28;20017;-65
2022/07/30 06:47:57;;;;;;;1999.90;999.90;;;;;;;20.19;63.90;95554.25;5031594;28;20482;-63
2022/07/30 06:50:23;;;;;;;1999.90;999.90;;;;;;;19.77;64.94;95508.28;5030329;28;20029;-65
2022/07/30 06:52:48;;;;;;;1999.90;999.90;;;;;;;20.21;63.88;95554.69;5029434;28;20041;-67
2022/07/30 06:55:14;;;;;;;1999.90;999.90;;;;;;;20.29;63.75;95525.13;5030882;28;20470;-66
2022/07/30 06:57:39;;;;;;;1999.90;999.90;;;;;;;20.41;63.89;95565.50;5031452;28;20056;-64
2022/07/30 07:00:06;;;;;;;1999.90;999.90;;;;;;;20.04;64.22;95552.41;5030829;28;20419;-66
2022/07/30 07:02:31;;;;;;;1999.90;999.90;;;;;;;20.53;64.06;95554.56;5011001;28;20075;-63
2022/07/30 07:04:56;;;;;;;1999.90;999.90;;;;;;;20.55;63.18;95555.00;5017442;28;20466;-63
2022/07/30 07:07:22;;;;;;;1999.90;999.90;;;;;;;20.30;62.67;95537.50;5013999;28;20108;-64
2022/07/30 07:09:47;;;;;;;1999.90;999.90;;;;;;;20.70;62.77;95551.41;5031161;28;20025;-62
2022/07/30 07:12:12;;;;;;;1999.90;999.90;;;;;;;20.62;62.54;95543.53;5031299;28;20105;-62
2022/07/30 07:14:38;;;;;;;1999.90;999.90;;;;;;;21.08;60.85;95557.84;5030909;28;20028;-64
2022/07/30 07:17:03;;;;;;;1999.90;999.90;;;;;;;21.05;60.71;95539.66;5014011;28;20093;-63
2022/07/30 07:19:28;;;;;;;1999.90;999.90;;;;;;;20.97;61.40;95546.84;5013387;28;20017;-62
2022/07/30 07:21:54;;;;;;;1999.90;999.90;;;;;;;20.85;61.50;95548.97;5026399;28;20366;-65
2022/07/30 07:24:19;;;;;;;1999.90;999.90;;;;;;;20.85;61.26;95560.56;5030047;28;20034;-63
2022/07/30 07:26:45;;;;;;;1999.90;999.90;;;;;;;20.96;61.01;95553.41;5019750;28;20428;-63
2022/07/30 07:29:11;;;;;;;1999.90;999.90;;;;;;;20.58;61.42;95559.69;5031326;28;20501;-63
2022/07/30 07:31:36;;;;;;;1999.90;999.90;;;;;;;21.07;60.65;95555.50;5028521;28;20104;-65
2022/07/30 07:34:02;;;;;;;1999.90;999.90;;;;;;;21.15;60.56;95558.00;5022191;28;20030;-63
2022/07/30 07:36:27;;;;;;;1999.90;999.90;;;;;;;21.05;60.21;95564.00;5011193;28;20037;-65
2022/07/30 07:38:53;;;;;;;1999.90;999.90;;;;;;;21.23;59.94;95561.59;5023626;28;20061;-65
2022/07/30 07:41:18;;;;;;;1999.90;999.90;;;;;;;21.24;60.27;95558.53;5030304;28;20025;-65
2022/07/30 07:43:43;;;;;;;1999.90;999.90;;;;;;;21.04;60.61;95540.81;5030447;28;20057;-64
2022/07/30 07:46:09;;;;;;;1999.90;999.90;;;;;;;21.05;60.14;95525.34;5010945;28;20447;-64
2022/07/30 07:48:34;;;;;;;1999.90;999.90;;;;;;;21.18;59.55;95561.88;5012342;28;20029;-65
2022/07/30 07:50:59;;;;;;;1999.90;999.90;;;;;;;21.08;60.07;95543.56;5029107;28;20079;-64
2022/07/30 07:53:25;;;;;;;1999.90;999.90;;;;;;;21.26;59.68;95547.34;5028410;28;20033;-64
2022/07/30 07:55:51;;;;;;;1999.90;999.90;;;;;;;21.24;59.33;95547.72;5030310;28;20029;-64
2022/07/30 07:58:16;;;;;;;1999.90;999.90;;;;;;;21.70;59.12;95552.25;5029919;28;20033;-64
2022/07/30 08:00:42;;;;;;;1999.90;999.90;;;;;;;21.42;58.01;95553.41;5010747;28;20026;-63
2022/07/30 08:03:07;;;;;;;1999.90;999.90;;;;;;;20.83;58.76;95548.53;5009879;28;20477;-64
2022/07/30 08:05:33;;;;;;;1999.90;999.90;;;;;;;21.58;57.21;95534.31;5029215;28;20037;-64
2022/07/30 08:07:58;;;;;;;1999.90;999.90;;;;;;;21.81;55.99;95534.28;5029466;28;20070;-64
2022/07/30 08:10:24;;;;;;;1999.90;999.90;;;;;;;22.23;55.01;95542.19;5026917;28;20029;-64
2022/07/30 08:12:49;;;;;;;1999.90;999.90;;;;;;;22.69;53.99;95538.44;5011207;28;20103;-64
2022/07/30 08:15:15;;;;;;;1999.90;999.90;;;;;;;22.13;54.27;95537.41;5008399;28;20033;-64
2022/07/30 08:17:41;;;;;;;1999.90;999.90;;;;;;;22.33;54.19;95551.59;5012195;28;20082;-63
2022/07/30 08:20:08;;;;;;;1999.90;999.90;;;;;;;22.05;54.30;95543.84;5010327;28;20493;-64
2022/07/30 08:22:33;;;;;;;1999.90;999.90;;;;;;;22.62;52.95;95547.25;5028948;28;20128;-64
2022/07/30 08:24:59;;;;;;;1999.90;999.90;;;;;;;22.46;53.43;95555.59;5010896;28;20032;-64
2022/07/30 08:27:25;;;;;;;1999.90;999.90;;;;;;;21.91;54.32;95570.78;5012213;28;20112;-64
2022/07/30 08:29:50;;;;;;;1999.90;999.90;;;;;;;22.27;54.38;95572.03;5028758;28;20034;-65
2022/07/30 08:32:16;;;;;;;1999.90;999.90;;;;;;;22.24;54.28;95549.16;5010697;28;20033;-64
2022/07/30 08:34:41;;;;;;;1999.90;999.90;;;;;;;22.73;52.48;95553.59;5029380;28;20029;-64
2022/07/30 08:37:06;;;;;;;1999.90;999.90;;;;;;;22.08;54.26;95534.22;5027795;28;20594;-63
2022/07/30 08:39:32;;;;;;;1999.90;999.90;;;;;;;22.98;53.08;95563.91;5011108;28;20379;-65
2022/07/30 08:41:57;;;;;;;1999.90;999.90;;;;;;;22.54;52.95;95565.38;5009842;28;20033;-65
2022/07/30 08:44:25;;;;;;;1999.90;999.90;;;;;;;22.38;53.34;95545.06;5010840;28;20036;-64
2022/07/30 08:46:54;;;;;;;1999.90;999.90;;;;;;;22.76;51.38;95569.09;5022189;28;20021;-65
2022/07/30 08:49:21;;;;;;;1999.90;999.90;;;;;;;23.05;50.92;95553.16;5010099;28;20030;-64
2022/07/30 08:51:48;;;;;;;1999.90;999.90;;;;;;;22.45;51.06;95532.38;5019646;28;20203;-65
2022/07/30 08:54:13;;;;;;;1999.90;999.90;;;;;;;23.03;49.71;95555.44;5001800;28;20208;-65
2022/07/30 08:56:39;;;;;;;1999.90;999.90;;;;;;;23.17;48.89;95561.00;5011331;28;20135;-66
2022/07/30 08:59:04;;;;;;;1999.90;999.90;;;;;;;22.96;50.76;95569.72;5029447;28;20104;-65
2022/07/30 09:01:30;;;;;;;1999.90;999.90;;;;;;;23.24;49.41;95546.72;5010924;28;20033;-65
2022/07/30 09:03:55;;;;;;;1999.90;999.90;;;;;;;22.84;49.49;95562.63;5014417;28;20030;-67
2022/07/30 09:06:20;;;;;;;1999.90;999.90;;;;;;;23.71;48.41;95561.47;5009892;28;20037;-64
2022/07/30 09:08:46;;;;;;;1999.90;999.90;;;;;;;23.24;47.17;95550.22;5014891;28;20029;-64
2022/07/30 09:11:11;;;;;;;1999.90;999.90;;;;;;;23.41;48.93;95562.38;5029512;28;20030;-64
2022/07/30 09:13:40;;;;;;;1999.90;999.90;;;;;;;23.30;48.10;95559.56;5029091;28;20478;-64
2022/07/30 09:16:06;;;;;;;1999.90;999.90;;;;;;;23.07;47.82;95548.91;5010797;28;20037;-65
2022/07/30 09:18:37;;;;;;;1999.90;999.90;;;;;;;23.04;47.03;95551.59;5027883;28;20025;-63
2022/07/30 09:21:13;;;;;;;1999.90;999.90;;;;;;;23.56;46.87;95566.75;5028872;28;20385;-64
2022/07/30 09:23:39;;;;;;;1999.90;999.90;;;;;;;23.36;47.48;95573.56;5010583;28;20034;-64
2022/07/30 09:26:04;;;;;;;1999.90;999.90;;;;;;;23.39;47.14;95574.75;5031525;28;20040;-63
2022/07/30 09:28:32;;;;;;;1999.90;999.90;;;;;;;23.20;47.52;95575.78;5041186;28;20035;-64
2022/07/30 09:30:58;;;;;;;1999.90;999.90;;;;;;;23.05;47.42;95526.00;5053552;28;20114;-65
2022/07/30 09:33:31;;;;;;;1999.90;999.90;;;;;;;23.43;46.72;95575.56;5025617;28;20052;-61
2022/07/30 09:35:56;;;;;;;1999.90;999.90;;;;;;;23.16;46.25;95562.16;5033320;28;20028;-63
2022/07/30 09:38:22;;;;;;;1999.90;999.90;;;;;;;23.45;45.03;95565.91;5032887;28;20022;-62
2022/07/30 09:40:55;;;;;;;1999.90;999.90;;;;;;;23.94;44.91;95575.56;5033470;28;20021;-64
2022/07/30 09:43:20;;;;;;;1999.90;999.90;;;;;;;23.12;45.54;95547.00;5027776;28;20041;-63
2022/07/30 09:45:59;;;;;;;1999.90;999.90;;;;;;;23.59;45.43;95565.97;5031606;28;20378;-63
2022/07/30 09:48:27;;;;;;;1999.90;999.90;;;;;;;23.89;45.08;95577.84;5032149;28;20029;-61
2022/07/30 09:50:53;;;;;;;1999.90;999.90;;;;;;;23.63;45.56;95560.63;5039371;28;20031;-61
2022/07/30 09:53:21;;;;;;;1999.90;999.90;;;;;;;24.74;42.88;95567.41;5025588;28;20109;-62
2022/07/30 09:55:47;;;;;;;1999.90;999.90;;;;;;;23.80;44.11;95572.75;5031207;28;20060;-62
2022/07/30 09:58:13;;;;;;;1999.90;999.90;;;;;;;24.52;42.64;95544.03;5014709;28;20068;-64
2022/07/30 10:00:39;;;;;;;1999.90;999.90;;;;;;;24.52;43.03;95554.91;5032032;28;20013;-63
2022/07/30 10:03:18;;;;;;;1999.90;999.90;;;;;;;25.54;40.88;95553.50;5013956;28;20079;-65
2022/07/30 10:05:55;;;;;;;1999.90;999.90;;;;;;;25.27;41.01;95563.22;5038702;28;20086;-63
2022/07/30 10:08:37;;;;;;;1999.90;999.90;;;;;;;24.65;41.68;95550.66;5046134;28;20029;-63
2022/07/30 10:11:03;;;;;;;1999.90;999.90;;;;;;;24.17;42.46;95575.31;5032554;28;20056;-64
2022/07/30 10:13:30;;;;;;;1999.90;999.90;;;;;;;24.07;43.19;95568.66;5031367;28;20073;-62
2022/07/30 10:15:56;;;;;;;1999.90;999.90;;;;;;;24.18;43.20;95555.13;5012955;28;20108;-63
2022/07/30 10:18:22;;;;;;;1999.90;999.90;;;;;;;24.11;41.57;95565.97;5031354;28;20026;-62
2022/07/30 10:20:47;;;;;;;1999.90;999.90;;;;;;;24.69;39.90;95550.66;5013621;28;20085;-62
2022/07/30 10:23:13;;;;;;;1999.90;999.90;;;;;;;25.25;39.95;95552.72;5030872;28;20120;-62
2022/07/30 10:25:39;;;;;;;1999.90;999.90;;;;;;;24.66;41.20;95571.25;5030353;28;20025;-63
2022/07/30 10:28:05;;;;;;;1999.90;999.90;;;;;;;24.46;40.91;95559.91;5013701;28;20110;-62
2022/07/30 10:30:31;;;;;;;1999.90;999.90;;;;;;;24.71;40.37;95572.81;5031559;28;20425;-63
2022/07/30 10:33:00;;;;;;;1999.90;999.90;;;;;;;24.96;39.75;95562.75;5031456;28;20044;-62
2022/07/30 10:35:26;;;;;;;1999.90;999.90;;;;;;;24.84;39.43;95555.75;5013587;28;20121;-62
2022/07/30 10:37:54;;;;;;;1999.90;999.90;;;;;;;24.03;41.04;95575.22;5011957;28;20109;-62
2022/07/30 10:40:27;;;;;;;1999.90;999.90;;;;;;;24.03;41.21;95576.00;5030143;28;20039;-61
2022/07/30 10:43:24;;;;;;;1999.90;999.90;;;;;;;25.04;39.92;95569.78;5012897;28;20033;-62
2022/07/30 10:46:04;;;;;;;1999.90;999.90;;;;;;;24.66;39.77;95526.94;5029985;28;20067;-65
2022/07/30 10:48:32;;;;;;;1999.90;999.90;;;;;;;24.42;39.79;95571.97;5031546;28;20030;-62
2022/07/30 10:50:59;;;;;;;1999.90;999.90;;;;;;;23.35;40.07;95563.88;5030805;28;20037;-63
2022/07/30 10:53:35;;;;;;;1999.90;999.90;;;;;;;23.67;39.60;95588.59;5029621;28;20428;-64